sensor_id;sensor_type;location;lat;lon;timestamp;P1;durP1;ratioP1;P2;durP2;ratioP2
17181;SDS011;8706;48.254;16.422;2024-02-14T00:00:02;6.63;;;5.97;;
17181;SDS011;8706;48.254;16.422;2024-02-14T00:02:29;6.90;;;6.20;;
17181;SDS011;8706;48.254;16.422;2024-02-14T00:04:58;6.70;;;6.00;;
17181;SDS011;8706;48.254;16.422;2024-02-14T00:07:24;6.73;;;6.03;;
17181;SDS011;8706;48.254;16.422;2024-02-14T00:09:51;6.63;;;6.03;;
17181;SDS011;8706;48.254;16.422;2024-02-14T00:12:19;6.07;;;5.47;;
17181;SDS011;8706;48.254;16.422;2024-02-14T00:14:45;7.10;;;6.37;;
17181;SDS011;8706;48.254;16.422;2024-02-14T00:17:13;6.77;;;6.07;;
17181;SDS011;8706;48.254;16.422;2024-02-14T00:19:40;6.20;;;5.57;;
17181;SDS011;8706;48.254;16.422;2024-02-14T00:22:08;6.80;;;6.20;;
17181;SDS011;8706;48.254;16.422;2024-02-14T00:24:35;6.37;;;5.77;;
17181;SDS011;8706;48.254;16.422;2024-02-14T00:27:02;6.63;;;6.03;;
17181;SDS011;8706;48.254;16.422;2024-02-14T00:29:29;7.23;;;6.40;;
17181;SDS011;8706;48.254;16.422;2024-02-14T00:31:59;6.40;;;5.67;;
17181;SDS011;8706;48.254;16.422;2024-02-14T00:34:26;6.37;;;5.73;;
17181;SDS011;8706;48.254;16.422;2024-02-14T00:36:53;6.57;;;5.87;;
17181;SDS011;8706;48.254;16.422;2024-02-14T00:39:21;6.90;;;6.20;;
17181;SDS011;8706;48.254;16.422;2024-02-14T00:41:48;6.90;;;6.20;;
17181;SDS011;8706;48.254;16.422;2024-02-14T00:44:17;6.07;;;5.30;;
17181;SDS011;8706;48.254;16.422;2024-02-14T00:46:44;7.17;;;5.87;;
17181;SDS011;8706;48.254;16.422;2024-02-14T00:49:11;7.17;;;6.47;;
17181;SDS011;8706;48.254;16.422;2024-02-14T00:51:38;7.00;;;6.30;;
17181;SDS011;8706;48.254;16.422;2024-02-14T00:54:06;6.13;;;5.53;;
17181;SDS011;8706;48.254;16.422;2024-02-14T00:56:34;6.33;;;5.73;;
17181;SDS011;8706;48.254;16.422;2024-02-14T00:59:01;7.03;;;6.33;;
17181;SDS011;8706;48.254;16.422;2024-02-14T01:01:28;6.60;;;5.90;;
17181;SDS011;8706;48.254;16.422;2024-02-14T01:03:55;6.73;;;6.03;;
17181;SDS011;8706;48.254;16.422;2024-02-14T01:06:21;6.83;;;6.07;;
17181;SDS011;8706;48.254;16.422;2024-02-14T01:08:49;6.27;;;5.67;;
17181;SDS011;8706;48.254;16.422;2024-02-14T01:11:16;6.33;;;5.63;;
17181;SDS011;8706;48.254;16.422;2024-02-14T01:13:44;6.77;;;5.60;;
17181;SDS011;8706;48.254;16.422;2024-02-14T01:16:11;6.90;;;6.20;;
17181;SDS011;8706;48.254;16.422;2024-02-14T01:18:39;7.07;;;5.60;;
17181;SDS011;8706;48.254;16.422;2024-02-14T01:21:06;6.40;;;5.77;;
17181;SDS011;8706;48.254;16.422;2024-02-14T01:23:33;6.70;;;6.00;;
17181;SDS011;8706;48.254;16.422;2024-02-14T01:26:00;6.37;;;5.67;;
17181;SDS011;8706;48.254;16.422;2024-02-14T01:28:27;6.80;;;6.20;;
17181;SDS011;8706;48.254;16.422;2024-02-14T01:30:55;6.07;;;5.47;;
17181;SDS011;8706;48.254;16.422;2024-02-14T01:33:23;6.67;;;5.97;;
17181;SDS011;8706;48.254;16.422;2024-02-14T01:35:49;6.67;;;6.07;;
17181;SDS011;8706;48.254;16.422;2024-02-14T01:38:16;6.07;;;5.43;;
17181;SDS011;8706;48.254;16.422;2024-02-14T01:40:43;6.10;;;5.50;;
17181;SDS011;8706;48.254;16.422;2024-02-14T01:43:10;6.10;;;5.50;;
17181;SDS011;8706;48.254;16.422;2024-02-14T01:45:39;6.03;;;5.43;;
17181;SDS011;8706;48.254;16.422;2024-02-14T01:48:08;6.37;;;5.73;;
17181;SDS011;8706;48.254;16.422;2024-02-14T01:50:35;6.60;;;5.90;;
17181;SDS011;8706;48.254;16.422;2024-02-14T01:53:03;7.90;;;6.00;;
17181;SDS011;8706;48.254;16.422;2024-02-14T01:55:31;6.10;;;5.50;;
17181;SDS011;8706;48.254;16.422;2024-02-14T01:57:59;6.87;;;6.17;;
17181;SDS011;8706;48.254;16.422;2024-02-14T02:00:28;7.10;;;5.87;;
17181;SDS011;8706;48.254;16.422;2024-02-14T02:02:56;6.40;;;5.53;;
17181;SDS011;8706;48.254;16.422;2024-02-14T02:05:25;5.90;;;5.40;;
17181;SDS011;8706;48.254;16.422;2024-02-14T02:07:52;6.60;;;6.00;;
17181;SDS011;8706;48.254;16.422;2024-02-14T02:10:19;6.57;;;5.77;;
17181;SDS011;8706;48.254;16.422;2024-02-14T02:12:47;6.23;;;5.63;;
17181;SDS011;8706;48.254;16.422;2024-02-14T02:15:15;5.83;;;5.27;;
17181;SDS011;8706;48.254;16.422;2024-02-14T02:17:43;6.27;;;5.67;;
17181;SDS011;8706;48.254;16.422;2024-02-14T02:20:11;6.83;;;6.00;;
17181;SDS011;8706;48.254;16.422;2024-02-14T02:22:42;5.73;;;5.20;;
17181;SDS011;8706;48.254;16.422;2024-02-14T02:25:12;5.80;;;5.20;;
17181;SDS011;8706;48.254;16.422;2024-02-14T02:27:39;6.07;;;5.43;;
17181;SDS011;8706;48.254;16.422;2024-02-14T02:30:06;5.87;;;5.37;;
17181;SDS011;8706;48.254;16.422;2024-02-14T02:32:35;5.97;;;5.37;;
17181;SDS011;8706;48.254;16.422;2024-02-14T02:35:03;6.70;;;5.63;;
17181;SDS011;8706;48.254;16.422;2024-02-14T02:37:30;6.20;;;5.60;;
17181;SDS011;8706;48.254;16.422;2024-02-14T02:39:58;5.83;;;5.23;;
17181;SDS011;8706;48.254;16.422;2024-02-14T02:42:25;6.00;;;5.40;;
17181;SDS011;8706;48.254;16.422;2024-02-14T02:44:52;6.00;;;5.40;;
17181;SDS011;8706;48.254;16.422;2024-02-14T02:47:19;6.17;;;5.57;;
17181;SDS011;8706;48.254;16.422;2024-02-14T02:49:46;5.63;;;5.13;;
17181;SDS011;8706;48.254;16.422;2024-02-14T02:52:13;5.80;;;5.27;;
17181;SDS011;8706;48.254;16.422;2024-02-14T02:54:40;5.93;;;5.13;;
17181;SDS011;8706;48.254;16.422;2024-02-14T02:57:10;5.73;;;5.13;;
17181;SDS011;8706;48.254;16.422;2024-02-14T02:59:37;5.13;;;4.63;;
17181;SDS011;8706;48.254;16.422;2024-02-14T03:02:07;6.63;;;5.97;;
17181;SDS011;8706;48.254;16.422;2024-02-14T03:04:37;5.70;;;5.10;;
17181;SDS011;8706;48.254;16.422;2024-02-14T03:07:03;5.60;;;5.07;;
17181;SDS011;8706;48.254;16.422;2024-02-14T03:09:31;5.93;;;5.43;;
17181;SDS011;8706;48.254;16.422;2024-02-14T03:11:58;5.73;;;5.13;;
17181;SDS011;8706;48.254;16.422;2024-02-14T03:14:29;5.90;;;5.33;;
17181;SDS011;8706;48.254;16.422;2024-02-14T03:16:57;5.47;;;4.97;;
17181;SDS011;8706;48.254;16.422;2024-02-14T03:19:24;5.90;;;5.30;;
17181;SDS011;8706;48.254;16.422;2024-02-14T03:21:52;5.80;;;5.20;;
17181;SDS011;8706;48.254;16.422;2024-02-14T03:24:19;5.93;;;5.33;;
17181;SDS011;8706;48.254;16.422;2024-02-14T03:26:46;6.17;;;5.57;;
17181;SDS011;8706;48.254;16.422;2024-02-14T03:29:13;5.97;;;5.37;;
17181;SDS011;8706;48.254;16.422;2024-02-14T03:31:43;5.40;;;4.90;;
17181;SDS011;8706;48.254;16.422;2024-02-14T03:34:10;4.63;;;4.23;;
17181;SDS011;8706;48.254;16.422;2024-02-14T03:36:36;5.50;;;5.00;;
17181;SDS011;8706;48.254;16.422;2024-02-14T03:39:04;5.60;;;5.10;;
17181;SDS011;8706;48.254;16.422;2024-02-14T03:41:31;4.97;;;4.47;;
17181;SDS011;8706;48.254;16.422;2024-02-14T03:43:59;5.93;;;5.20;;
17181;SDS011;8706;48.254;16.422;2024-02-14T03:46:26;5.70;;;5.10;;
17181;SDS011;8706;48.254;16.422;2024-02-14T03:48:55;5.67;;;5.17;;
17181;SDS011;8706;48.254;16.422;2024-02-14T03:51:23;5.60;;;5.10;;
17181;SDS011;8706;48.254;16.422;2024-02-14T03:53:50;5.40;;;4.90;;
17181;SDS011;8706;48.254;16.422;2024-02-14T03:56:17;5.57;;;5.07;;
17181;SDS011;8706;48.254;16.422;2024-02-14T03:58:44;5.83;;;5.23;;
17181;SDS011;8706;48.254;16.422;2024-02-14T04:01:12;5.67;;;4.93;;
17181;SDS011;8706;48.254;16.422;2024-02-14T04:03:39;5.50;;;5.00;;
17181;SDS011;8706;48.254;16.422;2024-02-14T04:06:07;5.50;;;4.90;;
17181;SDS011;8706;48.254;16.422;2024-02-14T04:08:34;5.63;;;5.10;;
17181;SDS011;8706;48.254;16.422;2024-02-14T04:11:01;5.87;;;5.20;;
17181;SDS011;8706;48.254;16.422;2024-02-14T04:13:28;5.80;;;5.20;;
17181;SDS011;8706;48.254;16.422;2024-02-14T04:15:55;5.13;;;4.67;;
17181;SDS011;8706;48.254;16.422;2024-02-14T04:18:21;5.60;;;5.10;;
17181;SDS011;8706;48.254;16.422;2024-02-14T04:20:48;6.17;;;5.57;;
17181;SDS011;8706;48.254;16.422;2024-02-14T04:23:17;5.50;;;5.00;;
17181;SDS011;8706;48.254;16.422;2024-02-14T04:25:44;5.30;;;4.80;;
17181;SDS011;8706;48.254;16.422;2024-02-14T04:28:11;5.43;;;4.70;;
17181;SDS011;8706;48.254;16.422;2024-02-14T04:30:38;5.30;;;4.80;;
17181;SDS011;8706;48.254;16.422;2024-02-14T04:33:06;6.00;;;5.10;;
17181;SDS011;8706;48.254;16.422;2024-02-14T04:35:34;5.30;;;4.80;;
17181;SDS011;8706;48.254;16.422;2024-02-14T04:38:01;5.33;;;4.77;;
17181;SDS011;8706;48.254;16.422;2024-02-14T04:40:30;5.30;;;4.80;;
17181;SDS011;8706;48.254;16.422;2024-02-14T04:42:56;5.20;;;4.53;;
17181;SDS011;8706;48.254;16.422;2024-02-14T04:45:23;5.10;;;4.60;;
17181;SDS011;8706;48.254;16.422;2024-02-14T04:47:50;5.30;;;4.80;;
17181;SDS011;8706;48.254;16.422;2024-02-14T04:50:17;5.27;;;4.77;;
17181;SDS011;8706;48.254;16.422;2024-02-14T04:52:45;4.97;;;4.47;;
17181;SDS011;8706;48.254;16.422;2024-02-14T04:55:11;5.37;;;4.87;;
17181;SDS011;8706;48.254;16.422;2024-02-14T04:57:40;5.27;;;4.77;;
17181;SDS011;8706;48.254;16.422;2024-02-14T05:00:07;5.03;;;4.63;;
17181;SDS011;8706;48.254;16.422;2024-02-14T05:02:35;4.70;;;4.30;;
17181;SDS011;8706;48.254;16.422;2024-02-14T05:05:02;5.63;;;4.77;;
17181;SDS011;8706;48.254;16.422;2024-02-14T05:07:29;5.30;;;4.80;;
17181;SDS011;8706;48.254;16.422;2024-02-14T05:09:56;5.57;;;4.97;;
17181;SDS011;8706;48.254;16.422;2024-02-14T05:12:23;5.13;;;4.63;;
17181;SDS011;8706;48.254;16.422;2024-02-14T05:14:51;5.00;;;4.50;;
17181;SDS011;8706;48.254;16.422;2024-02-14T05:17:18;5.30;;;4.63;;
17181;SDS011;8706;48.254;16.422;2024-02-14T05:19:45;5.53;;;5.00;;
17181;SDS011;8706;48.254;16.422;2024-02-14T05:22:11;4.77;;;4.37;;
17181;SDS011;8706;48.254;16.422;2024-02-14T05:24:38;5.43;;;4.93;;
17181;SDS011;8706;48.254;16.422;2024-02-14T05:27:05;5.00;;;4.50;;
17181;SDS011;8706;48.254;16.422;2024-02-14T05:29:33;5.00;;;4.57;;
17181;SDS011;8706;48.254;16.422;2024-02-14T05:32:01;4.80;;;4.40;;
17181;SDS011;8706;48.254;16.422;2024-02-14T05:34:28;5.10;;;4.60;;
17181;SDS011;8706;48.254;16.422;2024-02-14T05:36:55;5.43;;;4.93;;
17181;SDS011;8706;48.254;16.422;2024-02-14T05:39:21;4.83;;;4.40;;
17181;SDS011;8706;48.254;16.422;2024-02-14T05:41:48;5.53;;;4.90;;
17181;SDS011;8706;48.254;16.422;2024-02-14T05:44:16;4.90;;;4.40;;
17181;SDS011;8706;48.254;16.422;2024-02-14T05:46:43;5.90;;;4.83;;
17181;SDS011;8706;48.254;16.422;2024-02-14T05:49:11;4.77;;;4.37;;
17181;SDS011;8706;48.254;16.422;2024-02-14T05:51:38;5.40;;;4.90;;
17181;SDS011;8706;48.254;16.422;2024-02-14T05:54:06;4.43;;;4.10;;
17181;SDS011;8706;48.254;16.422;2024-02-14T05:56:33;5.33;;;4.70;;
17181;SDS011;8706;48.254;16.422;2024-02-14T05:58:59;5.27;;;4.77;;
17181;SDS011;8706;48.254;16.422;2024-02-14T06:01:27;5.47;;;4.97;;
17181;SDS011;8706;48.254;16.422;2024-02-14T06:03:54;5.30;;;4.80;;
17181;SDS011;8706;48.254;16.422;2024-02-14T06:06:23;4.77;;;4.37;;
17181;SDS011;8706;48.254;16.422;2024-02-14T06:08:50;6.27;;;5.77;;
17181;SDS011;8706;48.254;16.422;2024-02-14T06:11:16;4.93;;;4.53;;
17181;SDS011;8706;48.254;16.422;2024-02-14T06:13:46;5.23;;;4.73;;
17181;SDS011;8706;48.254;16.422;2024-02-14T06:16:13;5.27;;;4.67;;
17181;SDS011;8706;48.254;16.422;2024-02-14T06:18:40;4.77;;;4.37;;
17181;SDS011;8706;48.254;16.422;2024-02-14T06:21:07;5.60;;;5.10;;
17181;SDS011;8706;48.254;16.422;2024-02-14T06:23:35;5.90;;;5.40;;
17181;SDS011;8706;48.254;16.422;2024-02-14T06:26:04;4.43;;;4.03;;
17181;SDS011;8706;48.254;16.422;2024-02-14T06:28:31;4.70;;;4.23;;
17181;SDS011;8706;48.254;16.422;2024-02-14T06:30:58;5.83;;;5.30;;
17181;SDS011;8706;48.254;16.422;2024-02-14T06:33:25;4.87;;;4.47;;
17181;SDS011;8706;48.254;16.422;2024-02-14T06:35:53;5.23;;;4.77;;
17181;SDS011;8706;48.254;16.422;2024-02-14T06:38:20;5.17;;;4.67;;
17181;SDS011;8706;48.254;16.422;2024-02-14T06:40:48;4.93;;;4.53;;
17181;SDS011;8706;48.254;16.422;2024-02-14T06:43:16;5.03;;;4.60;;
17181;SDS011;8706;48.254;16.422;2024-02-14T06:45:42;4.97;;;4.57;;
17181;SDS011;8706;48.254;16.422;2024-02-14T06:48:09;4.70;;;4.30;;
17181;SDS011;8706;48.254;16.422;2024-02-14T06:50:36;5.43;;;4.93;;
17181;SDS011;8706;48.254;16.422;2024-02-14T06:53:03;4.80;;;4.40;;
17181;SDS011;8706;48.254;16.422;2024-02-14T06:55:31;4.87;;;4.47;;
17181;SDS011;8706;48.254;16.422;2024-02-14T06:58:00;4.80;;;4.40;;
17181;SDS011;8706;48.254;16.422;2024-02-14T07:00:26;4.70;;;4.30;;
17181;SDS011;8706;48.254;16.422;2024-02-14T07:02:54;4.83;;;4.43;;
17181;SDS011;8706;48.254;16.422;2024-02-14T07:05:21;4.63;;;4.23;;
17181;SDS011;8706;48.254;16.422;2024-02-14T07:07:48;4.93;;;4.43;;
17181;SDS011;8706;48.254;16.422;2024-02-14T07:10:15;5.60;;;5.10;;
17181;SDS011;8706;48.254;16.422;2024-02-14T07:12:42;4.93;;;4.53;;
17181;SDS011;8706;48.254;16.422;2024-02-14T07:15:10;5.67;;;5.17;;
17181;SDS011;8706;48.254;16.422;2024-02-14T07:17:37;4.93;;;4.43;;
17181;SDS011;8706;48.254;16.422;2024-02-14T07:20:05;4.43;;;4.03;;
17181;SDS011;8706;48.254;16.422;2024-02-14T07:22:34;5.27;;;4.77;;
17181;SDS011;8706;48.254;16.422;2024-02-14T07:25:01;5.43;;;5.00;;
17181;SDS011;8706;48.254;16.422;2024-02-14T07:27:30;5.60;;;5.10;;
17181;SDS011;8706;48.254;16.422;2024-02-14T07:29:57;6.10;;;5.60;;
17181;SDS011;8706;48.254;16.422;2024-02-14T07:32:25;5.30;;;4.80;;
17181;SDS011;8706;48.254;16.422;2024-02-14T07:34:52;5.83;;;5.33;;
17181;SDS011;8706;48.254;16.422;2024-02-14T07:37:19;5.57;;;5.00;;
17181;SDS011;8706;48.254;16.422;2024-02-14T07:39:46;5.83;;;5.33;;
17181;SDS011;8706;48.254;16.422;2024-02-14T07:42:14;5.47;;;4.97;;
17181;SDS011;8706;48.254;16.422;2024-02-14T07:44:40;6.27;;;5.67;;
17181;SDS011;8706;48.254;16.422;2024-02-14T07:47:07;4.90;;;4.40;;
17181;SDS011;8706;48.254;16.422;2024-02-14T07:49:36;6.07;;;4.97;;
17181;SDS011;8706;48.254;16.422;2024-02-14T07:52:03;5.50;;;5.00;;
17181;SDS011;8706;48.254;16.422;2024-02-14T07:54:30;5.37;;;4.87;;
17181;SDS011;8706;48.254;16.422;2024-02-14T07:56:57;5.50;;;5.00;;
17181;SDS011;8706;48.254;16.422;2024-02-14T07:59:24;5.43;;;5.00;;
17181;SDS011;8706;48.254;16.422;2024-02-14T08:01:50;5.60;;;5.10;;
17181;SDS011;8706;48.254;16.422;2024-02-14T08:04:17;5.73;;;5.17;;
17181;SDS011;8706;48.254;16.422;2024-02-14T08:06:46;5.40;;;4.90;;
17181;SDS011;8706;48.254;16.422;2024-02-14T08:09:14;5.67;;;5.17;;
17181;SDS011;8706;48.254;16.422;2024-02-14T08:11:41;5.80;;;5.30;;
17181;SDS011;8706;48.254;16.422;2024-02-14T08:14:07;5.50;;;5.00;;
17181;SDS011;8706;48.254;16.422;2024-02-14T08:16:34;5.40;;;4.90;;
17181;SDS011;8706;48.254;16.422;2024-02-14T08:19:01;5.53;;;5.03;;
17181;SDS011;8706;48.254;16.422;2024-02-14T08:21:28;5.83;;;5.33;;
17181;SDS011;8706;48.254;16.422;2024-02-14T08:23:57;5.70;;;5.20;;
17181;SDS011;8706;48.254;16.422;2024-02-14T08:26:24;4.90;;;4.50;;
17181;SDS011;8706;48.254;16.422;2024-02-14T08:28:51;5.73;;;5.23;;
17181;SDS011;8706;48.254;16.422;2024-02-14T08:31:19;5.33;;;4.83;;
17181;SDS011;8706;48.254;16.422;2024-02-14T08:33:46;5.63;;;5.13;;
17181;SDS011;8706;48.254;16.422;2024-02-14T08:36:13;5.90;;;5.30;;
17181;SDS011;8706;48.254;16.422;2024-02-14T08:38:41;5.00;;;4.50;;
17181;SDS011;8706;48.254;16.422;2024-02-14T08:41:10;5.00;;;4.60;;
17181;SDS011;8706;48.254;16.422;2024-02-14T08:43:37;5.17;;;4.67;;
17181;SDS011;8706;48.254;16.422;2024-02-14T08:46:08;4.83;;;4.33;;
17181;SDS011;8706;48.254;16.422;2024-02-14T08:48:36;5.07;;;4.67;;
17181;SDS011;8706;48.254;16.422;2024-02-14T08:51:06;4.90;;;4.50;;
17181;SDS011;8706;48.254;16.422;2024-02-14T08:53:34;5.10;;;4.70;;
17181;SDS011;8706;48.254;16.422;2024-02-14T08:56:01;5.03;;;4.63;;
17181;SDS011;8706;48.254;16.422;2024-02-14T08:58:29;5.07;;;4.53;;
17181;SDS011;8706;48.254;16.422;2024-02-14T09:00:56;5.20;;;4.80;;
17181;SDS011;8706;48.254;16.422;2024-02-14T09:03:23;5.03;;;4.63;;
17181;SDS011;8706;48.254;16.422;2024-02-14T09:05:50;5.47;;;4.97;;
17181;SDS011;8706;48.254;16.422;2024-02-14T09:08:18;5.10;;;4.70;;
17181;SDS011;8706;48.254;16.422;2024-02-14T09:10:45;4.53;;;4.13;;
17181;SDS011;8706;48.254;16.422;2024-02-14T09:13:13;4.90;;;4.40;;
17181;SDS011;8706;48.254;16.422;2024-02-14T09:15:42;5.07;;;4.67;;
17181;SDS011;8706;48.254;16.422;2024-02-14T09:18:09;4.90;;;4.50;;
17181;SDS011;8706;48.254;16.422;2024-02-14T09:20:36;4.50;;;4.10;;
17181;SDS011;8706;48.254;16.422;2024-02-14T09:23:03;4.80;;;4.30;;
17181;SDS011;8706;48.254;16.422;2024-02-14T09:25:30;4.80;;;4.40;;
17181;SDS011;8706;48.254;16.422;2024-02-14T09:27:57;4.33;;;4.03;;
17181;SDS011;8706;48.254;16.422;2024-02-14T09:30:24;5.10;;;4.70;;
17181;SDS011;8706;48.254;16.422;2024-02-14T09:32:52;3.93;;;3.63;;
17181;SDS011;8706;48.254;16.422;2024-02-14T09:35:19;4.50;;;4.10;;
17181;SDS011;8706;48.254;16.422;2024-02-14T09:37:46;4.43;;;4.13;;
17181;SDS011;8706;48.254;16.422;2024-02-14T09:40:14;4.10;;;3.80;;
17181;SDS011;8706;48.254;16.422;2024-02-14T09:42:43;3.80;;;3.50;;
17181;SDS011;8706;48.254;16.422;2024-02-14T09:45:12;5.03;;;4.63;;
17181;SDS011;8706;48.254;16.422;2024-02-14T09:47:41;3.97;;;3.67;;
17181;SDS011;8706;48.254;16.422;2024-02-14T09:50:10;4.40;;;4.00;;
17181;SDS011;8706;48.254;16.422;2024-02-14T09:52:38;4.43;;;4.03;;
17181;SDS011;8706;48.254;16.422;2024-02-14T09:55:07;4.20;;;3.80;;
17181;SDS011;8706;48.254;16.422;2024-02-14T09:57:36;4.20;;;3.90;;
17181;SDS011;8706;48.254;16.422;2024-02-14T10:00:07;4.17;;;3.87;;
17181;SDS011;8706;48.254;16.422;2024-02-14T10:02:35;4.30;;;3.90;;
17181;SDS011;8706;48.254;16.422;2024-02-14T10:05:03;4.00;;;3.70;;
17181;SDS011;8706;48.254;16.422;2024-02-14T10:07:39;3.93;;;3.63;;
17181;SDS011;8706;48.254;16.422;2024-02-14T10:10:06;4.63;;;4.23;;
17181;SDS011;8706;48.254;16.422;2024-02-14T10:12:34;4.07;;;3.77;;
17181;SDS011;8706;48.254;16.422;2024-02-14T10:15:00;4.20;;;3.90;;
17181;SDS011;8706;48.254;16.422;2024-02-14T10:17:28;4.00;;;3.70;;
17181;SDS011;8706;48.254;16.422;2024-02-14T10:19:55;4.17;;;3.87;;
17181;SDS011;8706;48.254;16.422;2024-02-14T10:22:23;4.43;;;4.13;;
17181;SDS011;8706;48.254;16.422;2024-02-14T10:24:51;4.37;;;4.00;;
17181;SDS011;8706;48.254;16.422;2024-02-14T10:27:18;4.10;;;3.80;;
17181;SDS011;8706;48.254;16.422;2024-02-14T10:29:47;4.73;;;4.33;;
17181;SDS011;8706;48.254;16.422;2024-02-14T10:32:14;4.27;;;3.93;;
17181;SDS011;8706;48.254;16.422;2024-02-14T10:34:42;4.30;;;3.90;;
17181;SDS011;8706;48.254;16.422;2024-02-14T10:37:11;3.77;;;3.47;;
17181;SDS011;8706;48.254;16.422;2024-02-14T10:39:41;3.83;;;3.43;;
17181;SDS011;8706;48.254;16.422;2024-02-14T10:42:11;4.10;;;3.80;;
17181;SDS011;8706;48.254;16.422;2024-02-14T10:44:38;4.23;;;3.93;;
17181;SDS011;8706;48.254;16.422;2024-02-14T10:47:06;4.07;;;3.77;;
17181;SDS011;8706;48.254;16.422;2024-02-14T10:49:40;4.20;;;3.90;;
17181;SDS011;8706;48.254;16.422;2024-02-14T10:52:11;3.73;;;3.43;;
17181;SDS011;8706;48.254;16.422;2024-02-14T10:54:40;3.80;;;3.50;;
17181;SDS011;8706;48.254;16.422;2024-02-14T10:57:10;4.20;;;3.80;;
17181;SDS011;8706;48.254;16.422;2024-02-14T10:59:38;4.00;;;3.70;;
17181;SDS011;8706;48.254;16.422;2024-02-14T11:02:12;3.97;;;3.67;;
17181;SDS011;8706;48.254;16.422;2024-02-14T11:04:39;4.10;;;3.80;;
17181;SDS011;8706;48.254;16.422;2024-02-14T11:07:08;3.97;;;3.67;;
17181;SDS011;8706;48.254;16.422;2024-02-14T11:09:36;4.07;;;3.70;;
17181;SDS011;8706;48.254;16.422;2024-02-14T11:12:06;3.70;;;3.40;;
17181;SDS011;8706;48.254;16.422;2024-02-14T11:14:35;3.90;;;3.60;;
17181;SDS011;8706;48.254;16.422;2024-02-14T11:17:03;3.87;;;3.57;;
17181;SDS011;8706;48.254;16.422;2024-02-14T11:19:34;3.93;;;3.63;;
17181;SDS011;8706;48.254;16.422;2024-02-14T11:22:09;3.90;;;3.60;;
17181;SDS011;8706;48.254;16.422;2024-02-14T11:24:38;3.67;;;3.37;;
17181;SDS011;8706;48.254;16.422;2024-02-14T11:27:09;4.10;;;3.70;;
17181;SDS011;8706;48.254;16.422;2024-02-14T11:29:39;4.07;;;3.70;;
17181;SDS011;8706;48.254;16.422;2024-02-14T11:32:07;3.80;;;3.50;;
17181;SDS011;8706;48.254;16.422;2024-02-14T11:34:35;3.63;;;3.33;;
17181;SDS011;8706;48.254;16.422;2024-02-14T11:37:02;4.13;;;3.83;;
17181;SDS011;8706;48.254;16.422;2024-02-14T11:39:29;3.57;;;3.30;;
17181;SDS011;8706;48.254;16.422;2024-02-14T11:41:58;3.87;;;3.57;;
17181;SDS011;8706;48.254;16.422;2024-02-14T11:44:26;3.73;;;3.43;;
17181;SDS011;8706;48.254;16.422;2024-02-14T11:46:54;3.70;;;3.40;;
17181;SDS011;8706;48.254;16.422;2024-02-14T11:49:21;3.93;;;3.63;;
17181;SDS011;8706;48.254;16.422;2024-02-14T11:51:48;3.63;;;3.33;;
17181;SDS011;8706;48.254;16.422;2024-02-14T11:54:15;3.77;;;3.47;;
17181;SDS011;8706;48.254;16.422;2024-02-14T11:56:46;4.33;;;4.03;;
17181;SDS011;8706;48.254;16.422;2024-02-14T11:59:13;5.10;;;4.57;;
17181;SDS011;8706;48.254;16.422;2024-02-14T12:01:40;3.80;;;3.50;;
17181;SDS011;8706;48.254;16.422;2024-02-14T12:04:09;4.57;;;4.17;;
17181;SDS011;8706;48.254;16.422;2024-02-14T12:06:38;4.40;;;4.00;;
17181;SDS011;8706;48.254;16.422;2024-02-14T12:09:07;4.37;;;3.53;;
17181;SDS011;8706;48.254;16.422;2024-02-14T12:11:34;4.50;;;4.10;;
17181;SDS011;8706;48.254;16.422;2024-02-14T12:14:02;4.83;;;4.43;;
17181;SDS011;8706;48.254;16.422;2024-02-14T12:16:29;4.10;;;3.80;;
17181;SDS011;8706;48.254;16.422;2024-02-14T12:19:03;4.07;;;3.77;;
17181;SDS011;8706;48.254;16.422;2024-02-14T12:21:34;4.30;;;3.90;;
17181;SDS011;8706;48.254;16.422;2024-02-14T12:24:02;4.53;;;4.17;;
17181;SDS011;8706;48.254;16.422;2024-02-14T12:26:29;4.10;;;3.70;;
17181;SDS011;8706;48.254;16.422;2024-02-14T12:28:57;4.27;;;3.97;;
17181;SDS011;8706;48.254;16.422;2024-02-14T12:31:24;3.80;;;3.50;;
17181;SDS011;8706;48.254;16.422;2024-02-14T12:33:52;4.67;;;4.27;;
17181;SDS011;8706;48.254;16.422;2024-02-14T12:36:20;4.30;;;3.90;;
17181;SDS011;8706;48.254;16.422;2024-02-14T12:38:48;4.17;;;3.77;;
17181;SDS011;8706;48.254;16.422;2024-02-14T12:41:16;4.13;;;3.63;;
17181;SDS011;8706;48.254;16.422;2024-02-14T12:43:43;3.70;;;3.40;;
17181;SDS011;8706;48.254;16.422;2024-02-14T12:46:10;4.67;;;4.27;;
17181;SDS011;8706;48.254;16.422;2024-02-14T12:48:37;3.93;;;3.53;;
17181;SDS011;8706;48.254;16.422;2024-02-14T12:51:04;3.93;;;3.63;;
17181;SDS011;8706;48.254;16.422;2024-02-14T12:53:32;4.00;;;3.60;;
17181;SDS011;8706;48.254;16.422;2024-02-14T12:56:00;4.97;;;4.03;;
17181;SDS011;8706;48.254;16.422;2024-02-14T12:58:27;4.67;;;4.10;;
17181;SDS011;8706;48.254;16.422;2024-02-14T13:00:54;4.60;;;4.20;;
17181;SDS011;8706;48.254;16.422;2024-02-14T13:03:21;5.27;;;4.80;;
17181;SDS011;8706;48.254;16.422;2024-02-14T13:05:48;5.60;;;4.97;;
17181;SDS011;8706;48.254;16.422;2024-02-14T13:08:15;5.23;;;4.73;;
17181;SDS011;8706;48.254;16.422;2024-02-14T13:10:43;4.70;;;4.30;;
17181;SDS011;8706;48.254;16.422;2024-02-14T13:13:11;4.93;;;4.53;;
17181;SDS011;8706;48.254;16.422;2024-02-14T13:15:39;5.33;;;4.83;;
17181;SDS011;8706;48.254;16.422;2024-02-14T13:18:08;5.77;;;5.30;;
17181;SDS011;8706;48.254;16.422;2024-02-14T13:20:34;5.70;;;5.20;;
17181;SDS011;8706;48.254;16.422;2024-02-14T13:23:02;6.93;;;6.33;;
17181;SDS011;8706;48.254;16.422;2024-02-14T13:25:30;4.90;;;4.50;;
17181;SDS011;8706;48.254;16.422;2024-02-14T13:27:57;5.40;;;4.90;;
17181;SDS011;8706;48.254;16.422;2024-02-14T13:30:25;5.57;;;5.00;;
17181;SDS011;8706;48.254;16.422;2024-02-14T13:32:52;5.80;;;5.30;;
17181;SDS011;8706;48.254;16.422;2024-02-14T13:35:19;5.43;;;4.93;;
17181;SDS011;8706;48.254;16.422;2024-02-14T13:37:46;5.73;;;5.23;;
17181;SDS011;8706;48.254;16.422;2024-02-14T13:40:13;5.43;;;4.93;;
17181;SDS011;8706;48.254;16.422;2024-02-14T13:42:40;5.80;;;4.87;;
17181;SDS011;8706;48.254;16.422;2024-02-14T13:45:07;5.30;;;4.83;;
17181;SDS011;8706;48.254;16.422;2024-02-14T13:47:37;7.03;;;6.43;;
17181;SDS011;8706;48.254;16.422;2024-02-14T13:50:05;6.53;;;5.93;;
17181;SDS011;8706;48.254;16.422;2024-02-14T13:52:32;6.07;;;5.47;;
17181;SDS011;8706;48.254;16.422;2024-02-14T13:54:59;5.50;;;5.00;;
17181;SDS011;8706;48.254;16.422;2024-02-14T13:57:27;5.57;;;5.07;;
17181;SDS011;8706;48.254;16.422;2024-02-14T13:59:54;5.53;;;5.03;;
17181;SDS011;8706;48.254;16.422;2024-02-14T14:02:21;5.30;;;4.80;;
17181;SDS011;8706;48.254;16.422;2024-02-14T14:04:50;7.30;;;5.80;;
17181;SDS011;8706;48.254;16.422;2024-02-14T14:07:18;6.10;;;5.50;;
17181;SDS011;8706;48.254;16.422;2024-02-14T14:09:45;5.37;;;4.87;;
17181;SDS011;8706;48.254;16.422;2024-02-14T14:12:12;6.13;;;5.30;;
17181;SDS011;8706;48.254;16.422;2024-02-14T14:14:39;5.67;;;5.17;;
17181;SDS011;8706;48.254;16.422;2024-02-14T14:17:06;6.73;;;6.13;;
17181;SDS011;8706;48.254;16.422;2024-02-14T14:19:32;6.40;;;5.80;;
17181;SDS011;8706;48.254;16.422;2024-02-14T14:22:01;5.90;;;5.40;;
17181;SDS011;8706;48.254;16.422;2024-02-14T14:24:28;5.53;;;4.97;;
17181;SDS011;8706;48.254;16.422;2024-02-14T14:26:56;6.73;;;6.03;;
17181;SDS011;8706;48.254;16.422;2024-02-14T14:29:23;6.60;;;6.00;;
17181;SDS011;8706;48.254;16.422;2024-02-14T14:31:50;6.17;;;5.57;;
17181;SDS011;8706;48.254;16.422;2024-02-14T14:34:17;5.93;;;5.33;;
17181;SDS011;8706;48.254;16.422;2024-02-14T14:36:44;5.77;;;5.27;;
17181;SDS011;8706;48.254;16.422;2024-02-14T14:39:13;5.43;;;4.93;;
17181;SDS011;8706;48.254;16.422;2024-02-14T14:41:40;6.27;;;5.47;;
17181;SDS011;8706;48.254;16.422;2024-02-14T14:44:08;6.30;;;5.70;;
17181;SDS011;8706;48.254;16.422;2024-02-14T14:46:36;6.07;;;5.47;;
17181;SDS011;8706;48.254;16.422;2024-02-14T14:49:07;6.80;;;6.10;;